createdAt,value
2019-03-09T00:00:17.696Z,0.00
2019-03-09T00:01:17.703Z,0.00
2019-03-09T00:02:17.713Z,0.00
2019-03-09T00:03:17.711Z,0.00
2019-03-09T00:04:17.719Z,0.00
2019-03-09T00:05:17.728Z,0.00
2019-03-09T00:06:17.731Z,0.00
2019-03-09T00:07:17.743Z,0.00
2019-03-09T00:08:17.750Z,0.00
2019-03-09T00:09:17.755Z,0.00
2019-03-09T00:10:17.762Z,0.00
2019-03-09T00:11:17.766Z,0.00
2019-03-09T00:12:17.771Z,0.00
2019-03-09T00:13:17.782Z,0.00
2019-03-09T00:14:17.786Z,0.00
2019-03-09T00:15:17.792Z,0.00
2019-03-09T00:16:17.799Z,0.00
2019-03-09T00:17:17.817Z,0.00
2019-03-09T00:18:17.815Z,0.00
2019-03-09T00:19:17.818Z,0.00
2019-03-09T00:20:17.830Z,0.00
2019-03-09T00:21:17.833Z,0.00
2019-03-09T00:22:17.840Z,0.00
2019-03-09T00:23:17.847Z,0.00
2019-03-09T00:24:17.858Z,0.00
2019-03-09T00:25:17.861Z,0.00
2019-03-09T00:26:17.864Z,0.00
2019-03-09T00:27:17.871Z,0.00
2019-03-09T00:28:17.876Z,0.00
2019-03-09T00:29:17.931Z,0.00
2019-03-09T00:30:17.896Z,0.00
2019-03-09T00:31:17.896Z,0.00
2019-03-09T00:32:17.902Z,0.00
2019-03-09T00:33:17.909Z,0.00
2019-03-09T00:34:17.917Z,0.00
2019-03-09T00:35:17.927Z,0.00
2019-03-09T00:36:17.934Z,0.00
2019-03-09T00:37:17.940Z,0.00
2019-03-09T00:38:17.945Z,0.00
2019-03-09T00:39:17.952Z,0.00
2019-03-09T00:40:17.957Z,0.00
2019-03-09T00:41:17.961Z,0.00
2019-03-09T00:42:17.974Z,0.00
2019-03-09T00:43:17.977Z,0.00
2019-03-09T00:44:17.981Z,0.00
2019-03-09T00:45:17.992Z,0.00
2019-03-09T00:46:18.013Z,0.00
2019-03-09T00:47:18.004Z,0.00
2019-03-09T00:48:18.007Z,0.00
2019-03-09T00:49:18.017Z,0.00
2019-03-09T00:50:18.025Z,0.00
2019-03-09T00:51:18.031Z,0.00
2019-03-09T00:52:18.037Z,0.00
2019-03-09T00:53:18.042Z,0.00
2019-03-09T00:54:18.047Z,0.00
2019-03-09T00:55:18.053Z,0.00
2019-03-09T00:56:18.097Z,0.00
2019-03-09T00:57:18.069Z,0.00
2019-03-09T00:58:18.079Z,0.00
2019-03-09T00:59:18.083Z,0.00
2019-03-09T01:00:18.088Z,0.00
2019-03-09T01:01:18.094Z,0.00
2019-03-09T01:02:18.097Z,0.00
2019-03-09T01:03:18.108Z,0.00
2019-03-09T01:04:18.110Z,0.00
2019-03-09T01:05:18.117Z,0.00
2019-03-09T01:06:18.122Z,0.00
2019-03-09T01:07:18.132Z,0.00
2019-03-09T01:08:18.136Z,0.00
2019-03-09T01:09:18.146Z,0.00
2019-03-09T01:10:18.154Z,0.00
2019-03-09T01:11:18.157Z,0.00
2019-03-09T01:12:18.166Z,0.00
2019-03-09T01:13:18.173Z,0.00
2019-03-09T01:14:18.181Z,0.00
2019-03-09T01:15:18.181Z,0.00
2019-03-09T01:16:18.190Z,0.00
2019-03-09T01:17:18.202Z,0.00
2019-03-09T01:18:18.206Z,0.00
2019-03-09T01:19:18.211Z,0.00
2019-03-09T01:20:18.217Z,0.00
2019-03-09T01:21:18.219Z,0.00
2019-03-09T01:22:18.233Z,0.00
2019-03-09T01:23:18.286Z,0.00
2019-03-09T01:24:18.243Z,0.00
2019-03-09T01:25:18.303Z,0.00
2019-03-09T01:26:18.256Z,0.00
2019-03-09T01:27:18.257Z,0.00
2019-03-09T01:28:18.270Z,0.00
2019-03-09T01:29:18.277Z,0.00
2019-03-09T01:30:18.280Z,0.00
2019-03-09T01:31:18.283Z,0.00
2019-03-09T01:32:18.295Z,0.00
2019-03-09T01:33:18.296Z,0.00
2019-03-09T01:34:18.303Z,0.00
2019-03-09T01:35:18.312Z,0.00
2019-03-09T01:36:18.320Z,0.00
2019-03-09T01:37:18.326Z,0.00
2019-03-09T01:38:18.329Z,0.00
2019-03-09T01:39:18.340Z,0.00
2019-03-09T01:40:18.347Z,0.00
2019-03-09T01:41:18.353Z,0.00
2019-03-09T01:42:18.356Z,0.00
2019-03-09T01:43:18.364Z,0.00
2019-03-09T01:44:18.373Z,0.00
2019-03-09T01:45:18.379Z,0.00
2019-03-09T01:46:18.385Z,0.00
2019-03-09T01:47:18.388Z,0.00
2019-03-09T01:48:18.396Z,0.00
2019-03-09T01:49:18.403Z,0.00
2019-03-09T01:50:18.415Z,0.00
2019-03-09T01:51:18.415Z,0.00
2019-03-09T01:52:18.422Z,0.00
2019-03-09T01:53:18.433Z,0.00
2019-03-09T01:54:18.440Z,0.00
2019-03-09T01:55:18.442Z,0.00
2019-03-09T01:56:18.451Z,0.00
2019-03-09T01:57:18.458Z,0.00
2019-03-09T01:58:18.464Z,0.00
2019-03-09T01:59:18.468Z,0.00
2019-03-09T02:00:18.479Z,0.00
2019-03-09T02:01:18.482Z,0.00
2019-03-09T02:02:18.493Z,0.00
2019-03-09T02:03:18.500Z,0.00
2019-03-09T02:04:18.506Z,0.00
2019-03-09T02:05:18.516Z,0.00
2019-03-09T02:06:18.518Z,0.00
2019-03-09T02:07:18.525Z,0.00
2019-03-09T02:08:18.529Z,0.00
2019-03-09T02:09:18.541Z,0.00
2019-03-09T02:10:18.557Z,0.00
2019-03-09T02:11:18.554Z,0.00
2019-03-09T02:12:18.563Z,0.00
2019-03-09T02:13:18.573Z,0.00
2019-03-09T02:14:18.577Z,0.00
2019-03-09T02:15:18.577Z,0.00
2019-03-09T02:16:18.587Z,0.00
2019-03-09T02:17:18.595Z,0.00
2019-03-09T02:18:18.599Z,0.00
2019-03-09T02:19:18.614Z,0.00
2019-03-09T02:20:18.616Z,0.00
2019-03-09T02:21:18.618Z,0.00
2019-03-09T02:22:18.627Z,0.00
2019-03-09T02:23:18.632Z,0.00
2019-03-09T02:24:18.641Z,0.00
2019-03-09T02:25:18.647Z,0.00
2019-03-09T02:26:18.655Z,0.00
2019-03-09T02:27:18.660Z,0.00
2019-03-09T02:28:18.671Z,0.00
2019-03-09T02:29:18.673Z,0.00
2019-03-09T02:30:18.681Z,0.00
2019-03-09T02:31:18.691Z,0.00
2019-03-09T02:32:18.701Z,0.00
2019-03-09T02:33:18.712Z,0.00
2019-03-09T02:34:18.708Z,0.00
2019-03-09T02:35:18.723Z,0.00
2019-03-09T02:36:18.729Z,0.00
2019-03-09T02:37:18.727Z,0.00
2019-03-09T02:38:18.733Z,0.00
2019-03-09T02:39:18.742Z,0.00
2019-03-09T02:40:18.749Z,0.00
2019-03-09T02:41:18.758Z,0.00
2019-03-09T02:42:18.764Z,0.00
2019-03-09T02:43:18.769Z,0.00
2019-03-09T02:44:18.779Z,0.00
2019-03-09T02:45:18.786Z,0.00
2019-03-09T02:46:18.791Z,0.00
2019-03-09T02:47:18.800Z,0.00
2019-03-09T02:48:18.804Z,0.00
2019-03-09T02:49:18.811Z,0.00
2019-03-09T02:50:18.826Z,0.00
2019-03-09T02:51:18.828Z,0.00
2019-03-09T02:52:18.831Z,0.00
2019-03-09T02:53:18.834Z,0.00
2019-03-09T02:54:18.839Z,0.00
2019-03-09T02:55:18.852Z,0.00
2019-03-09T02:56:18.852Z,0.00
2019-03-09T02:57:18.869Z,0.00
2019-03-09T02:58:18.867Z,0.00
2019-03-09T02:59:18.871Z,0.00
2019-03-09T03:00:18.881Z,0.00
2019-03-09T03:01:18.890Z,0.00
2019-03-09T03:02:18.895Z,0.00
2019-03-09T03:03:18.902Z,0.00
2019-03-09T03:04:18.905Z,0.00
2019-03-09T03:05:18.918Z,0.00
2019-03-09T03:06:18.923Z,0.00
2019-03-09T03:07:18.932Z,0.00
2019-03-09T03:08:18.951Z,0.00
2019-03-09T03:09:18.944Z,0.00
2019-03-09T03:10:18.951Z,0.00
2019-03-09T03:11:18.952Z,0.00
2019-03-09T03:12:18.963Z,0.00
2019-03-09T03:13:18.968Z,0.00
2019-03-09T03:14:18.976Z,0.00
2019-03-09T03:15:18.980Z,0.00
2019-03-09T03:16:18.985Z,0.00
2019-03-09T03:17:18.991Z,0.00
2019-03-09T03:18:19.005Z,0.00
2019-03-09T03:19:19.013Z,0.00
2019-03-09T03:20:19.013Z,0.00
2019-03-09T03:21:19.022Z,0.00
2019-03-09T03:22:19.029Z,0.00
2019-03-09T03:23:19.034Z,0.00
2019-03-09T03:24:19.041Z,0.00
2019-03-09T03:25:19.052Z,0.00
2019-03-09T03:26:19.048Z,0.00
2019-03-09T03:27:19.056Z,0.00
2019-03-09T03:28:19.070Z,0.00
2019-03-09T03:29:19.073Z,0.00
2019-03-09T03:30:19.078Z,0.00
2019-03-09T03:31:19.084Z,0.00
2019-03-09T03:32:19.107Z,0.00
2019-03-09T03:33:19.095Z,0.00
2019-03-09T03:34:19.103Z,0.00
2019-03-09T03:35:19.108Z,0.00
2019-03-09T03:36:19.117Z,0.00
2019-03-09T03:37:19.117Z,0.00
2019-03-09T03:38:19.126Z,0.00
2019-03-09T03:39:19.133Z,0.00
2019-03-09T03:40:19.145Z,0.00
2019-03-09T03:41:19.151Z,0.00
2019-03-09T03:42:19.149Z,0.00
2019-03-09T03:43:19.158Z,0.00
2019-03-09T03:44:19.165Z,0.00
2019-03-09T03:45:19.168Z,0.00
2019-03-09T03:46:19.181Z,0.00
2019-03-09T03:47:19.179Z,0.00
2019-03-09T03:48:19.205Z,0.00
2019-03-09T03:49:19.196Z,0.00
2019-03-09T03:50:19.202Z,0.00
2019-03-09T03:51:19.209Z,0.00
2019-03-09T03:52:19.226Z,0.00
2019-03-09T03:53:19.221Z,0.00
2019-03-09T03:54:19.243Z,0.00
2019-03-09T03:55:19.234Z,0.00
2019-03-09T03:56:19.247Z,0.00
2019-03-09T03:57:19.317Z,0.00
2019-03-09T03:58:19.253Z,0.00
2019-03-09T03:59:19.262Z,0.00
2019-03-09T04:00:19.265Z,0.00
2019-03-09T04:01:19.272Z,0.00
2019-03-09T04:02:19.277Z,0.00
2019-03-09T04:03:19.291Z,0.00
2019-03-09T04:04:19.293Z,0.00
2019-03-09T04:05:19.299Z,0.00
2019-03-09T04:06:19.308Z,0.00
2019-03-09T04:07:19.309Z,0.00
2019-03-09T04:08:19.334Z,0.00
2019-03-09T04:09:19.333Z,0.00
2019-03-09T04:10:19.360Z,0.00
2019-03-09T04:11:19.346Z,0.00
2019-03-09T04:12:19.345Z,0.00
2019-03-09T04:13:19.347Z,0.00
2019-03-09T04:14:19.351Z,0.00
2019-03-09T04:15:19.356Z,0.00
2019-03-09T04:16:19.364Z,0.00
2019-03-09T04:17:19.371Z,0.00
2019-03-09T04:18:19.383Z,0.00
2019-03-09T04:19:19.382Z,0.00
2019-03-09T04:20:19.395Z,0.00
2019-03-09T04:21:19.404Z,0.00
2019-03-09T04:22:19.413Z,0.00
2019-03-09T04:23:19.410Z,0.00
2019-03-09T04:24:19.453Z,0.00
2019-03-09T04:25:19.423Z,0.00
2019-03-09T04:26:19.432Z,0.00
2019-03-09T04:27:19.494Z,0.00
2019-03-09T04:28:19.442Z,0.00
2019-03-09T04:29:19.448Z,0.00
2019-03-09T04:30:19.465Z,0.00
2019-03-09T04:31:19.465Z,0.00
2019-03-09T04:32:19.468Z,0.00
2019-03-09T04:33:19.470Z,0.00
2019-03-09T04:34:19.478Z,0.00
2019-03-09T04:35:19.484Z,0.00
2019-03-09T04:36:19.494Z,0.00
2019-03-09T04:37:19.495Z,0.00
2019-03-09T04:38:19.511Z,0.00
2019-03-09T04:39:19.506Z,0.00
2019-03-09T04:40:19.513Z,0.00
2019-03-09T04:41:19.535Z,0.00
2019-03-09T04:42:19.526Z,0.00
2019-03-09T04:43:19.532Z,0.00
2019-03-09T04:44:19.538Z,0.00
2019-03-09T04:45:19.544Z,0.00
2019-03-09T04:46:19.552Z,0.00
2019-03-09T04:47:19.563Z,0.00
2019-03-09T04:48:19.567Z,0.00
2019-03-09T04:49:19.573Z,0.00
2019-03-09T04:50:19.575Z,0.00
2019-03-09T04:51:19.595Z,0.00
2019-03-09T04:52:19.592Z,0.00
2019-03-09T04:53:19.595Z,0.00
2019-03-09T04:54:19.604Z,0.00
2019-03-09T04:55:19.611Z,0.00
2019-03-09T04:56:19.619Z,0.00
2019-03-09T04:57:19.621Z,0.00
2019-03-09T04:58:19.631Z,0.00
2019-03-09T04:59:19.637Z,0.00
2019-03-09T05:00:19.640Z,0.00
2019-03-09T05:01:19.645Z,0.00
2019-03-09T05:02:19.653Z,0.00
2019-03-09T05:03:19.660Z,0.00
2019-03-09T05:04:19.667Z,0.00
2019-03-09T05:05:19.672Z,0.00
2019-03-09T05:06:19.683Z,0.00
2019-03-09T05:07:19.686Z,0.00
2019-03-09T05:08:19.692Z,0.00
2019-03-09T05:09:19.700Z,0.00
2019-03-09T05:10:19.716Z,0.00
2019-03-09T05:11:19.712Z,0.00
2019-03-09T05:12:19.722Z,0.00
2019-03-09T05:13:19.724Z,0.00
2019-03-09T05:14:19.734Z,0.00
2019-03-09T05:15:19.737Z,0.00
2019-03-09T05:16:19.744Z,0.00
2019-03-09T05:17:19.756Z,0.00
2019-03-09T05:18:19.764Z,0.00
2019-03-09T05:19:19.765Z,0.00
2019-03-09T05:20:19.775Z,0.00
2019-03-09T05:21:19.799Z,0.00
2019-03-09T05:22:19.791Z,0.00
2019-03-09T05:23:19.798Z,0.00
2019-03-09T05:24:19.799Z,0.00
2019-03-09T05:25:19.804Z,0.00
2019-03-09T05:26:19.814Z,0.00
2019-03-09T05:27:19.826Z,0.00
2019-03-09T05:28:19.825Z,0.00
2019-03-09T05:29:19.839Z,0.00
2019-03-09T05:30:19.839Z,0.00
2019-03-09T05:31:19.846Z,0.00
2019-03-09T05:32:19.850Z,0.00
2019-03-09T05:33:19.858Z,0.00
2019-03-09T05:34:19.864Z,0.00
2019-03-09T05:35:19.873Z,0.00
2019-03-09T05:36:19.879Z,0.00
2019-03-09T05:37:19.890Z,0.00
2019-03-09T05:38:19.886Z,0.00
2019-03-09T05:39:19.898Z,0.00
2019-03-09T05:40:19.899Z,0.00
2019-03-09T05:41:19.906Z,4.00
2019-03-09T05:42:19.916Z,0.00
2019-03-09T05:43:19.921Z,4.00
2019-03-09T05:44:19.928Z,0.00
2019-03-09T05:45:19.932Z,0.00
2019-03-09T05:46:20.087Z,0.00
2019-03-09T05:47:19.950Z,0.00
2019-03-09T05:48:19.956Z,0.00
2019-03-09T05:49:19.961Z,4.00
2019-03-09T05:50:19.964Z,0.00
2019-03-09T05:51:19.973Z,0.00
2019-03-09T05:52:19.980Z,4.00
2019-03-09T05:53:19.985Z,4.00
2019-03-09T05:54:19.993Z,0.00
2019-03-09T05:55:20.003Z,0.00
2019-03-09T05:56:20.006Z,4.00
2019-03-09T05:57:20.013Z,0.00
2019-03-09T05:58:20.023Z,4.00
2019-03-09T05:59:20.022Z,0.00
2019-03-09T06:00:20.029Z,4.00
2019-03-09T06:01:20.037Z,4.00
2019-03-09T06:02:20.057Z,4.00
2019-03-09T06:03:20.054Z,4.00
2019-03-09T06:04:20.060Z,4.00
2019-03-09T06:05:20.066Z,8.00
2019-03-09T06:06:20.072Z,8.00
2019-03-09T06:07:20.078Z,8.00
2019-03-09T06:08:20.084Z,8.00
2019-03-09T06:09:20.094Z,12.00
2019-03-09T06:10:20.096Z,8.00
2019-03-09T06:11:20.105Z,12.00
2019-03-09T06:12:20.117Z,8.00
2019-03-09T06:13:20.125Z,12.00
2019-03-09T06:14:20.129Z,12.00
2019-03-09T06:15:20.128Z,16.00
2019-03-09T06:16:20.146Z,16.00
2019-03-09T06:17:20.143Z,16.00
2019-03-09T06:18:20.151Z,16.00
2019-03-09T06:19:20.158Z,16.00
2019-03-09T06:20:20.163Z,12.00
2019-03-09T06:21:20.170Z,12.00
2019-03-09T06:22:20.177Z,12.00
2019-03-09T06:23:20.181Z,16.00
2019-03-09T06:24:20.191Z,16.00
2019-03-09T06:25:20.198Z,16.00
2019-03-09T06:26:20.205Z,20.00
2019-03-09T06:27:20.213Z,20.00
2019-03-09T06:28:20.214Z,20.00
2019-03-09T06:29:20.222Z,20.00
2019-03-09T06:30:20.231Z,20.00
2019-03-09T06:31:20.239Z,20.00
2019-03-09T06:32:20.241Z,28.00
2019-03-09T06:33:20.253Z,32.00
2019-03-09T06:34:20.258Z,44.00
2019-03-09T06:35:20.264Z,52.00
2019-03-09T06:36:20.270Z,56.00
2019-03-09T06:37:20.277Z,64.00
2019-03-09T06:38:20.279Z,72.00
2019-03-09T06:39:20.285Z,76.00
2019-03-09T06:40:20.296Z,76.00
2019-03-09T06:41:20.300Z,76.00
2019-03-09T06:42:20.308Z,68.00
2019-03-09T06:43:20.323Z,64.00
2019-03-09T06:44:20.343Z,60.00
2019-03-09T06:45:20.328Z,56.00
2019-03-09T06:46:20.332Z,52.00
2019-03-09T06:47:20.340Z,48.00
2019-03-09T06:48:20.348Z,48.00
2019-03-09T06:49:20.352Z,52.00
2019-03-09T06:50:20.359Z,52.00
2019-03-09T06:51:20.360Z,52.00
2019-03-09T06:52:20.370Z,56.00
2019-03-09T06:53:20.379Z,60.00
2019-03-09T06:54:20.383Z,64.00
2019-03-09T06:55:20.388Z,68.00
2019-03-09T06:56:20.394Z,72.00
2019-03-09T06:57:20.400Z,72.00
2019-03-09T06:58:20.406Z,72.00
2019-03-09T06:59:20.408Z,72.00
2019-03-09T07:00:20.417Z,72.00
2019-03-09T07:01:20.424Z,76.00
2019-03-09T07:02:20.430Z,80.00
2019-03-09T07:03:20.435Z,80.00
2019-03-09T07:04:20.440Z,80.00
2019-03-09T07:05:20.458Z,80.00
2019-03-09T07:06:20.456Z,80.00
2019-03-09T07:07:20.461Z,84.00
2019-03-09T07:08:20.464Z,92.00
2019-03-09T07:09:20.524Z,96.00
2019-03-09T07:10:20.481Z,100.00
2019-03-09T07:11:20.487Z,96.00
2019-03-09T07:12:20.489Z,104.00
2019-03-09T07:13:20.495Z,104.00
2019-03-09T07:14:20.523Z,104.00
2019-03-09T07:15:20.507Z,104.00
2019-03-09T07:16:20.525Z,104.00
2019-03-09T07:17:20.520Z,104.00
2019-03-09T07:18:20.531Z,104.00
2019-03-09T07:19:20.530Z,112.00
2019-03-09T07:20:20.540Z,120.00
2019-03-09T07:21:20.544Z,120.00
2019-03-09T07:22:20.550Z,124.00
2019-03-09T07:23:20.566Z,128.00
2019-03-09T07:24:20.568Z,132.00
2019-03-09T07:25:20.568Z,140.00
2019-03-09T07:26:20.574Z,144.00
2019-03-09T07:27:20.585Z,148.00
2019-03-09T07:28:20.591Z,152.00
2019-03-09T07:29:20.593Z,160.00
2019-03-09T07:30:20.598Z,164.00
2019-03-09T07:31:20.606Z,156.00
2019-03-09T07:32:20.616Z,152.00
2019-03-09T07:33:20.620Z,148.00
2019-03-09T07:34:20.628Z,144.00
2019-03-09T07:35:20.629Z,148.00
2019-03-09T07:36:20.638Z,148.00
2019-03-09T07:37:20.645Z,152.00
2019-03-09T07:38:20.654Z,148.00
2019-03-09T07:39:20.655Z,152.00
2019-03-09T07:40:20.661Z,152.00
2019-03-09T07:41:20.666Z,144.00
2019-03-09T07:42:20.675Z,132.00
2019-03-09T07:43:20.682Z,128.00
2019-03-09T07:44:20.688Z,120.00
2019-03-09T07:45:20.699Z,124.00
2019-03-09T07:46:20.699Z,136.00
2019-03-09T07:47:20.708Z,144.00
2019-03-09T07:48:20.719Z,156.00
2019-03-09T07:49:20.724Z,152.00
2019-03-09T07:50:20.726Z,152.00
2019-03-09T07:51:20.738Z,160.00
2019-03-09T07:52:20.742Z,168.00
2019-03-09T07:53:20.758Z,176.00
2019-03-09T07:54:20.775Z,172.00
2019-03-09T07:55:20.761Z,164.00
2019-03-09T07:56:20.766Z,164.00
2019-03-09T07:57:20.776Z,164.00
2019-03-09T07:58:20.780Z,164.00
2019-03-09T07:59:20.788Z,160.00
2019-03-09T08:00:20.798Z,156.00
2019-03-09T08:01:20.805Z,152.00
2019-03-09T08:02:20.813Z,152.00
2019-03-09T08:03:20.813Z,152.00
2019-03-09T08:04:20.826Z,152.00
2019-03-09T08:05:20.826Z,148.00
2019-03-09T08:06:20.836Z,140.00
2019-03-09T08:07:20.841Z,140.00
2019-03-09T08:08:20.849Z,144.00
2019-03-09T08:09:20.855Z,156.00
2019-03-09T08:10:20.863Z,160.00
2019-03-09T08:11:20.873Z,168.00
2019-03-09T08:12:20.880Z,172.00
2019-03-09T08:13:20.883Z,176.00
2019-03-09T08:14:20.889Z,180.00
2019-03-09T08:15:20.895Z,172.00
2019-03-09T08:16:20.903Z,160.00
2019-03-09T08:17:20.913Z,148.00
2019-03-09T08:18:20.921Z,144.00
2019-03-09T08:19:20.928Z,140.00
2019-03-09T08:20:20.933Z,132.00
2019-03-09T08:21:20.938Z,124.00
2019-03-09T08:22:20.959Z,120.00
2019-03-09T08:23:20.951Z,124.00
2019-03-09T08:24:20.962Z,120.00
2019-03-09T08:25:20.966Z,124.00
2019-03-09T08:26:20.985Z,124.00
2019-03-09T08:27:20.990Z,128.00
2019-03-09T08:28:21.002Z,128.00
2019-03-09T08:29:21.007Z,128.00
2019-03-09T08:30:21.012Z,132.00
2019-03-09T08:31:21.011Z,136.00
2019-03-09T08:32:21.016Z,144.00
2019-03-09T08:33:21.031Z,144.00
2019-03-09T08:34:21.040Z,152.00
2019-03-09T08:35:21.042Z,160.00
2019-03-09T08:36:21.043Z,172.00
2019-03-09T08:37:21.053Z,176.00
2019-03-09T08:38:21.076Z,168.00
2019-03-09T08:39:21.070Z,164.00
2019-03-09T08:40:21.093Z,164.00
2019-03-09T08:41:21.104Z,172.00
2019-03-09T08:42:21.088Z,192.00
2019-03-09T08:43:21.093Z,216.00
2019-03-09T08:44:21.103Z,232.00
2019-03-09T08:45:21.147Z,248.00
2019-03-09T08:46:21.118Z,272.00
2019-03-09T08:47:21.140Z,296.00
2019-03-09T08:48:21.136Z,300.00
2019-03-09T08:49:21.148Z,300.00
2019-03-09T08:50:21.147Z,276.00
2019-03-09T08:51:21.164Z,248.00
2019-03-09T08:52:21.168Z,228.00
2019-03-09T08:53:21.165Z,208.00
2019-03-09T08:54:21.209Z,196.00
2019-03-09T08:55:21.182Z,184.00
2019-03-09T08:56:21.206Z,180.00
2019-03-09T08:57:21.225Z,172.00
2019-03-09T08:58:21.231Z,164.00
2019-03-09T08:59:21.216Z,160.00
2019-03-09T09:00:21.246Z,168.00
2019-03-09T09:01:21.224Z,184.00
2019-03-09T09:02:21.254Z,212.00
2019-03-09T09:03:21.234Z,232.00
2019-03-09T09:04:21.246Z,252.00
2019-03-09T09:05:21.250Z,264.00
2019-03-09T09:06:21.257Z,268.00
2019-03-09T09:07:21.260Z,276.00
2019-03-09T09:08:21.266Z,272.00
2019-03-09T09:09:21.272Z,260.00
2019-03-09T09:10:21.281Z,252.00
2019-03-09T09:11:21.288Z,244.00
2019-03-09T09:12:21.296Z,228.00
2019-03-09T09:13:21.301Z,224.00
2019-03-09T09:14:21.307Z,228.00
2019-03-09T09:15:21.318Z,228.00
2019-03-09T09:16:21.365Z,228.00
2019-03-09T09:17:21.351Z,228.00
2019-03-09T09:18:21.336Z,224.00
2019-03-09T09:19:21.337Z,232.00
2019-03-09T09:20:21.343Z,252.00
2019-03-09T09:21:21.350Z,280.00
2019-03-09T09:22:21.357Z,320.00
2019-03-09T09:23:21.371Z,336.00
2019-03-09T09:24:21.374Z,324.00
2019-03-09T09:25:21.384Z,340.00
2019-03-09T09:26:21.383Z,360.00
2019-03-09T09:27:21.388Z,356.00
2019-03-09T09:28:21.398Z,328.00
2019-03-09T09:29:21.405Z,284.00
2019-03-09T09:30:21.409Z,264.00
2019-03-09T09:31:21.416Z,252.00
2019-03-09T09:32:21.439Z,244.00
2019-03-09T09:33:21.437Z,228.00
2019-03-09T09:34:21.439Z,208.00
2019-03-09T09:35:21.444Z,200.00
2019-03-09T09:36:21.450Z,192.00
2019-03-09T09:37:21.454Z,204.00
2019-03-09T09:38:21.461Z,224.00
2019-03-09T09:39:21.473Z,256.00
2019-03-09T09:40:21.477Z,296.00
2019-03-09T09:41:21.479Z,344.00
2019-03-09T09:42:21.486Z,352.00
2019-03-09T09:43:21.500Z,364.00
2019-03-09T09:44:21.502Z,384.00
2019-03-09T09:45:21.507Z,384.00
2019-03-09T09:46:21.516Z,380.00
2019-03-09T09:47:21.521Z,412.00
2019-03-09T09:48:21.528Z,412.00
2019-03-09T09:49:21.536Z,408.00
2019-03-09T09:50:21.538Z,396.00
2019-03-09T09:51:21.543Z,400.00
2019-03-09T09:52:21.550Z,404.00
2019-03-09T09:53:23.434Z,408.00
2019-03-09T09:54:21.567Z,420.00
2019-03-09T09:55:21.571Z,424.00
2019-03-09T09:56:21.577Z,416.00
2019-03-09T09:57:21.584Z,416.00
2019-03-09T09:58:21.590Z,420.00
2019-03-09T09:59:21.602Z,420.00
2019-03-09T10:00:21.610Z,408.00
2019-03-09T10:01:21.616Z,396.00
2019-03-09T10:02:21.623Z,396.00
2019-03-09T10:03:21.624Z,396.00
2019-03-09T10:04:21.637Z,408.00
2019-03-09T10:05:21.643Z,416.00
2019-03-09T10:06:21.656Z,412.00
2019-03-09T10:07:21.651Z,404.00
2019-03-09T10:08:21.664Z,392.00
2019-03-09T10:09:21.668Z,372.00
2019-03-09T10:10:21.673Z,356.00
2019-03-09T10:11:21.689Z,344.00
2019-03-09T10:12:21.688Z,344.00
2019-03-09T10:13:21.700Z,344.00
2019-03-09T10:14:21.705Z,348.00
2019-03-09T10:15:21.711Z,352.00
2019-03-09T10:16:21.718Z,348.00
2019-03-09T10:17:21.726Z,348.00
2019-03-09T10:18:21.731Z,348.00
2019-03-09T10:19:21.740Z,356.00
2019-03-09T10:20:21.749Z,364.00
2019-03-09T10:21:21.762Z,372.00
2019-03-09T10:22:21.765Z,380.00
2019-03-09T10:23:21.808Z,408.00
2019-03-09T10:24:21.777Z,416.00
2019-03-09T10:25:21.785Z,432.00
2019-03-09T10:26:24.670Z,432.00
2019-03-09T10:27:21.797Z,436.00
2019-03-09T10:28:21.807Z,488.00
2019-03-09T10:29:21.816Z,472.00
2019-03-09T10:30:21.820Z,464.00
2019-03-09T10:31:21.830Z,464.00
2019-03-09T10:32:21.836Z,464.00
2019-03-09T10:33:24.167Z,424.00
2019-03-09T10:34:21.856Z,432.00
2019-03-09T10:35:21.863Z,504.00
2019-03-09T10:36:21.864Z,444.00
2019-03-09T10:37:21.876Z,448.00
2019-03-09T10:38:21.884Z,536.00
2019-03-09T10:39:21.888Z,484.00
2019-03-09T10:40:21.906Z,420.00
2019-03-09T10:41:21.908Z,404.00
2019-03-09T10:42:21.918Z,408.00
2019-03-09T10:43:21.922Z,388.00
2019-03-09T10:44:21.927Z,352.00
2019-03-09T10:45:21.939Z,312.00
2019-03-09T10:46:21.946Z,276.00
2019-03-09T10:47:21.951Z,252.00
2019-03-09T10:48:21.958Z,236.00
2019-03-09T10:49:21.966Z,224.00
2019-03-09T10:50:21.974Z,216.00
2019-03-09T10:51:21.985Z,208.00
2019-03-09T10:52:21.994Z,208.00
2019-03-09T10:53:22.001Z,216.00
2019-03-09T10:54:22.011Z,224.00
2019-03-09T10:55:22.021Z,236.00
2019-03-09T10:56:22.027Z,252.00
2019-03-09T10:57:22.031Z,280.00
2019-03-09T10:58:22.045Z,308.00
2019-03-09T10:59:22.051Z,328.00
2019-03-09T11:00:22.062Z,340.00
2019-03-09T11:01:22.081Z,352.00
2019-03-09T11:02:22.080Z,360.00
2019-03-09T11:03:22.084Z,368.00
2019-03-09T11:04:27.474Z,368.00
2019-03-09T11:05:22.097Z,376.00
2019-03-09T11:06:22.107Z,380.00
2019-03-09T11:07:22.113Z,372.00
2019-03-09T11:08:22.122Z,364.00
2019-03-09T11:09:22.132Z,368.00
2019-03-09T11:10:22.143Z,388.00
2019-03-09T11:11:22.148Z,412.00
2019-03-09T11:12:22.155Z,432.00
2019-03-09T11:13:22.167Z,452.00
2019-03-09T11:14:22.178Z,436.00
2019-03-09T11:15:22.184Z,412.00
2019-03-09T11:16:22.212Z,396.00
2019-03-09T11:17:22.200Z,380.00
2019-03-09T11:18:22.208Z,368.00
2019-03-09T11:19:22.237Z,360.00
2019-03-09T11:20:22.221Z,360.00
2019-03-09T11:21:22.233Z,372.00
2019-03-09T11:22:22.240Z,392.00
2019-03-09T11:23:22.249Z,424.00
2019-03-09T11:24:22.256Z,452.00
2019-03-09T11:25:22.269Z,468.00
2019-03-09T11:26:22.278Z,452.00
2019-03-09T11:27:22.286Z,440.00
2019-03-09T11:28:22.291Z,436.00
2019-03-09T11:29:22.297Z,436.00
2019-03-09T11:30:22.370Z,448.00
2019-03-09T11:31:22.314Z,448.00
2019-03-09T11:32:22.323Z,436.00
2019-03-09T11:33:22.330Z,448.00
2019-03-09T11:34:22.341Z,480.00
2019-03-09T11:35:22.350Z,508.00
2019-03-09T11:36:22.360Z,568.00
2019-03-09T11:37:22.371Z,536.00
2019-03-09T11:38:22.379Z,544.00
2019-03-09T11:39:22.387Z,584.00
2019-03-09T11:40:22.399Z,664.00
2019-03-09T11:41:22.409Z,688.00
2019-03-09T11:42:22.422Z,648.00
2019-03-09T11:43:22.423Z,700.00
2019-03-09T11:44:22.432Z,768.00
2019-03-09T11:45:22.436Z,796.00
2019-03-09T11:46:22.450Z,820.00
2019-03-09T11:47:22.457Z,672.00
2019-03-09T11:48:22.467Z,584.00
2019-03-09T11:49:22.476Z,540.00
2019-03-09T11:50:22.486Z,492.00
2019-03-09T11:51:22.491Z,460.00
2019-03-09T11:52:22.506Z,444.00
2019-03-09T11:53:22.512Z,428.00
2019-03-09T11:54:22.519Z,432.00
2019-03-09T11:55:22.528Z,432.00
2019-03-09T11:56:22.538Z,428.00
2019-03-09T11:57:22.550Z,408.00
2019-03-09T11:58:22.559Z,388.00
2019-03-09T11:59:22.572Z,356.00
2019-03-09T12:00:22.600Z,332.00
2019-03-09T12:01:22.589Z,332.00
2019-03-09T12:02:22.595Z,336.00
2019-03-09T12:03:22.602Z,328.00
2019-03-09T12:04:22.614Z,316.00
2019-03-09T12:05:22.623Z,300.00
2019-03-09T12:06:22.632Z,284.00
2019-03-09T12:07:22.645Z,288.00
2019-03-09T12:08:22.649Z,296.00
2019-03-09T12:09:22.656Z,292.00
2019-03-09T12:10:22.673Z,280.00
2019-03-09T12:11:22.682Z,272.00
2019-03-09T12:12:22.686Z,276.00
2019-03-09T12:13:22.694Z,280.00
2019-03-09T12:14:22.708Z,288.00
2019-03-09T12:15:22.714Z,300.00
2019-03-09T12:16:22.722Z,308.00
2019-03-09T12:17:22.737Z,308.00
2019-03-09T12:18:22.744Z,292.00
2019-03-09T12:19:22.752Z,272.00
2019-03-09T12:20:22.761Z,252.00
2019-03-09T12:21:22.771Z,236.00
2019-03-09T12:22:22.780Z,224.00
2019-03-09T12:23:22.786Z,216.00
2019-03-09T12:24:22.800Z,208.00
2019-03-09T12:25:22.810Z,196.00
2019-03-09T12:26:22.821Z,192.00
2019-03-09T12:27:22.824Z,180.00
2019-03-09T12:28:22.837Z,168.00
2019-03-09T12:29:22.846Z,164.00
2019-03-09T12:30:22.857Z,168.00
2019-03-09T12:31:22.862Z,176.00
2019-03-09T12:32:22.876Z,180.00
2019-03-09T12:33:22.884Z,184.00
2019-03-09T12:34:22.889Z,188.00
2019-03-09T12:35:22.900Z,184.00
2019-03-09T12:36:22.907Z,172.00
2019-03-09T12:37:22.920Z,164.00
2019-03-09T12:38:22.934Z,160.00
2019-03-09T12:39:22.939Z,152.00
2019-03-09T12:40:22.948Z,148.00
2019-03-09T12:41:22.955Z,148.00
2019-03-09T12:42:22.964Z,152.00
2019-03-09T12:43:22.976Z,160.00
2019-03-09T12:44:22.984Z,168.00
2019-03-09T12:45:22.995Z,184.00
2019-03-09T12:46:23.001Z,212.00
2019-03-09T12:47:23.046Z,228.00
2019-03-09T12:48:23.027Z,236.00
2019-03-09T12:49:23.032Z,236.00
2019-03-09T12:50:23.040Z,236.00
2019-03-09T12:51:23.047Z,240.00
2019-03-09T12:52:23.057Z,236.00
2019-03-09T12:53:23.066Z,248.00